createdAt,value
2023-02-16T00:01:16.127Z,101637.94
2023-02-16T00:03:42.988Z,101631.00
2023-02-16T00:06:14.505Z,101624.94
2023-02-16T00:08:41.141Z,101625.00
2023-02-16T00:11:38.892Z,101635.34
2023-02-16T00:14:09.380Z,101629.34
2023-02-16T00:16:36.125Z,101636.38
2023-02-16T00:19:13.527Z,101634.59
2023-02-16T00:21:42.468Z,101633.66
2023-02-16T00:24:09.130Z,101633.94
2023-02-16T00:26:35.753Z,101631.47
2023-02-16T00:29:02.689Z,101636.38
2023-02-16T00:31:32.975Z,101633.34
2023-02-16T00:34:03.617Z,101625.47
2023-02-16T00:36:32.551Z,101622.88
2023-02-16T00:39:00.187Z,101630.75
2023-02-16T00:41:45.528Z,101622.25
2023-02-16T00:44:17.948Z,101621.22
2023-02-16T00:46:45.343Z,101626.34
2023-02-16T00:49:16.497Z,101624.84
2023-02-16T00:51:43.706Z,101624.69
2023-02-16T00:54:10.416Z,101623.75
2023-02-16T00:56:37.296Z,101616.00
2023-02-16T00:59:06.401Z,101622.88
2023-02-16T01:01:34.258Z,101612.59
2023-02-16T01:04:03.504Z,101622.72
2023-02-16T01:06:48.916Z,101620.94
2023-02-16T01:09:36.145Z,101616.50
2023-02-16T01:12:05.019Z,101620.66
2023-02-16T01:14:33.025Z,101611.03
2023-02-16T01:16:59.665Z,101605.72
2023-02-16T01:19:26.382Z,101600.44
2023-02-16T01:21:52.978Z,101608.03
2023-02-16T01:24:19.605Z,101607.19
2023-02-16T01:26:49.473Z,101608.53
2023-02-16T01:29:18.987Z,101608.78
2023-02-16T01:31:46.277Z,101600.63
2023-02-16T01:34:13.548Z,101607.44
2023-02-16T01:36:43.500Z,101606.78
2023-02-16T01:39:13.401Z,101616.84
2023-02-16T01:42:03.405Z,101602.94
2023-02-16T01:44:52.671Z,101594.28
2023-02-16T01:47:30.864Z,101583.13
2023-02-16T01:49:57.549Z,101585.00
2023-02-16T01:52:36.144Z,101596.16
2023-02-16T01:55:17.004Z,101593.47
2023-02-16T01:57:49.821Z,101601.91
2023-02-16T02:00:22.927Z,101594.00
2023-02-16T02:02:52.928Z,101583.56
2023-02-16T02:05:35.741Z,101577.56
2023-02-16T02:08:35.838Z,101585.63
2023-02-16T02:11:24.135Z,101576.78
2023-02-16T02:13:56.774Z,101575.91
2023-02-16T02:16:25.630Z,101578.56
2023-02-16T02:18:52.286Z,101584.31
2023-02-16T02:21:47.472Z,101582.53
2023-02-16T02:24:48.077Z,101565.41
2023-02-16T02:27:27.175Z,101564.66
2023-02-16T02:30:02.155Z,101559.41
2023-02-16T02:32:47.675Z,101564.00
2023-02-16T02:35:31.289Z,101562.44
2023-02-16T02:38:11.422Z,101562.16
2023-02-16T02:41:01.638Z,101558.47
2023-02-16T02:43:34.607Z,101555.81
2023-02-16T02:46:02.959Z,101547.09
2023-02-16T02:48:30.927Z,101551.50
2023-02-16T02:51:18.591Z,101554.75
2023-02-16T02:53:49.231Z,101548.94
2023-02-16T02:56:35.863Z,101545.28
2023-02-16T02:59:27.160Z,101544.50
2023-02-16T03:01:57.360Z,101543.69
2023-02-16T03:04:26.751Z,101548.69
2023-02-16T03:06:56.019Z,101553.28
2023-02-16T03:09:22.961Z,101546.22
2023-02-16T03:12:08.805Z,101549.75
2023-02-16T03:14:39.715Z,101550.41
2023-02-16T03:17:46.167Z,101546.22
2023-02-16T03:20:33.882Z,101543.69
2023-02-16T03:23:20.315Z,101546.22
2023-02-16T03:26:06.066Z,101528.91
2023-02-16T03:28:53.776Z,101525.66
2023-02-16T03:31:23.546Z,101529.44
2023-02-16T03:33:55.066Z,101523.97
2023-02-16T03:36:27.372Z,101532.53
2023-02-16T03:38:55.465Z,101524.72
2023-02-16T03:41:22.490Z,101513.47
2023-02-16T03:43:49.304Z,101522.13
2023-02-16T03:46:16.255Z,101512.72
2023-02-16T03:48:43.078Z,101519.72
2023-02-16T03:51:09.689Z,101514.50
2023-02-16T03:53:36.324Z,101520.56
2023-02-16T03:56:03.080Z,101514.72
2023-02-16T03:58:29.688Z,101524.97
2023-02-16T04:00:57.009Z,101520.63
2023-02-16T04:03:23.651Z,101522.25
2023-02-16T04:05:50.385Z,101523.06
2023-02-16T04:08:17.106Z,101522.25
2023-02-16T04:10:44.343Z,101524.09
2023-02-16T04:13:10.963Z,101526.69
2023-02-16T04:15:37.628Z,101524.78
2023-02-16T04:18:04.304Z,101535.19
2023-02-16T04:20:32.413Z,101527.44
2023-02-16T04:22:59.376Z,101529.78
2023-02-16T04:25:26.579Z,101535.75
2023-02-16T04:27:53.651Z,101534.88
2023-02-16T04:30:22.770Z,101536.66
2023-02-16T04:32:49.522Z,101536.66
2023-02-16T04:35:16.571Z,101529.78
2023-02-16T04:37:43.187Z,101529.72
2023-02-16T04:40:15.065Z,101517.66
2023-02-16T04:42:42.956Z,101518.72
2023-02-16T04:45:10.318Z,101517.09
2023-02-16T04:47:37.221Z,101528.19
2023-02-16T04:50:04.385Z,101526.47
2023-02-16T04:52:31.080Z,101517.91
2023-02-16T04:54:57.762Z,101532.59
2023-02-16T04:57:24.991Z,101523.13
2023-02-16T04:59:51.628Z,101518.09
2023-02-16T05:02:18.258Z,101512.94
2023-02-16T05:04:45.027Z,101522.69
2023-02-16T05:07:11.702Z,101521.66
2023-02-16T05:09:38.405Z,101529.25
2023-02-16T05:12:23.757Z,101530.97
2023-02-16T05:14:50.625Z,101540.66
2023-02-16T05:17:22.883Z,101534.66
2023-02-16T05:19:57.469Z,101534.59
2023-02-16T05:22:24.644Z,101534.72
2023-02-16T05:24:51.550Z,101532.06
2023-02-16T05:27:24.403Z,101522.69
2023-02-16T05:29:51.295Z,101529.09
2023-02-16T05:32:18.239Z,101532.28
2023-02-16T05:34:45.600Z,101529.56
2023-02-16T05:37:13.975Z,101524.25
2023-02-16T05:39:41.167Z,101525.19
2023-02-16T05:42:07.925Z,101530.50
2023-02-16T05:44:34.595Z,101527.84
2023-02-16T05:47:01.258Z,101521.78
2023-02-16T05:49:27.984Z,101522.69
2023-02-16T05:51:54.617Z,101516.63
2023-02-16T05:54:21.378Z,101515.81
2023-02-16T05:56:50.595Z,101519.34
2023-02-16T05:59:17.585Z,101525.19
2023-02-16T06:01:47.942Z,101511.31
2023-02-16T06:04:17.294Z,101517.22
2023-02-16T06:06:44.126Z,101524.03
2023-02-16T06:09:10.768Z,101528.38
2023-02-16T06:11:37.507Z,101532.53
2023-02-16T06:14:06.529Z,101535.13
2023-02-16T06:16:34.565Z,101534.16
2023-02-16T06:19:01.973Z,101535.75
2023-02-16T06:21:29.293Z,101531.47
2023-02-16T06:23:55.953Z,101536.66
2023-02-16T06:26:22.890Z,101548.13
2023-02-16T06:28:49.561Z,101547.00
2023-02-16T06:31:16.318Z,101548.69
2023-02-16T06:33:43.437Z,101552.25
2023-02-16T06:36:10.910Z,101549.69
2023-02-16T06:38:37.796Z,101550.69
2023-02-16T06:41:04.795Z,101549.81
2023-02-16T06:43:31.693Z,101540.50
2023-02-16T06:45:58.739Z,101548.41
2023-02-16T06:48:25.349Z,101545.75
2023-02-16T06:50:52.145Z,101540.66
2023-02-16T06:53:18.914Z,101532.22
2023-02-16T06:55:45.653Z,101532.50
2023-02-16T06:58:12.651Z,101538.78
2023-02-16T07:00:39.519Z,101531.91
2023-02-16T07:03:06.376Z,101529.75
2023-02-16T07:05:33.276Z,101534.75
2023-02-16T07:07:59.949Z,101529.88
2023-02-16T07:10:28.065Z,101527.66
2023-02-16T07:12:57.477Z,101534.59
2023-02-16T07:15:24.092Z,101526.88
2023-02-16T07:17:50.716Z,101533.31
2023-02-16T07:20:18.528Z,101525.59
2023-02-16T07:22:45.097Z,101515.47
2023-02-16T07:25:11.829Z,101510.75
2023-02-16T07:27:38.507Z,101512.53
2023-02-16T07:30:05.971Z,101514.22
2023-02-16T07:32:32.606Z,101513.63
2023-02-16T07:34:59.260Z,101510.28
2023-02-16T07:37:25.969Z,101514.78
2023-02-16T07:39:53.368Z,101516.75
2023-02-16T07:42:20.623Z,101511.91
2023-02-16T07:44:47.468Z,101521.03
2023-02-16T07:47:14.542Z,101522.91
2023-02-16T07:49:41.485Z,101527.34
2023-02-16T07:52:08.199Z,101535.44
2023-02-16T07:54:34.983Z,101535.59
2023-02-16T07:57:01.618Z,101530.75
2023-02-16T07:59:28.297Z,101539.44
2023-02-16T08:01:55.349Z,101545.78
2023-02-16T08:04:24.941Z,101539.91
2023-02-16T08:06:51.894Z,101540.34
2023-02-16T08:09:18.700Z,101548.63
2023-02-16T08:11:45.428Z,101542.38
2023-02-16T08:14:12.267Z,101550.00
2023-02-16T08:16:39.236Z,101550.25
2023-02-16T08:19:06.138Z,101547.91
2023-02-16T08:21:34.185Z,101549.28
2023-02-16T08:24:02.670Z,101547.22
2023-02-16T08:26:39.306Z,101551.06
2023-02-16T08:29:10.176Z,101551.25
2023-02-16T08:31:38.429Z,101550.13
2023-02-16T08:34:06.128Z,101545.56
2023-02-16T08:36:35.719Z,101542.09
2023-02-16T08:39:05.159Z,101539.94
2023-02-16T08:41:34.189Z,101536.97
2023-02-16T08:44:01.190Z,101547.50
2023-02-16T08:46:29.438Z,101537.09
2023-02-16T08:49:00.352Z,101538.22
2023-02-16T08:51:32.638Z,101528.94
2023-02-16T08:54:00.190Z,101538.53
2023-02-16T08:56:29.675Z,101530.97
2023-02-16T08:58:57.322Z,101521.63
2023-02-16T09:01:24.050Z,101527.22
2023-02-16T09:03:51.183Z,101517.94
2023-02-16T09:06:22.674Z,101518.38
2023-02-16T09:08:53.938Z,101515.53
2023-02-16T09:11:21.458Z,101521.97
2023-02-16T09:13:48.367Z,101516.91
2023-02-16T09:16:20.240Z,101508.69
2023-02-16T09:18:47.099Z,101502.41
2023-02-16T09:21:16.040Z,101502.06
2023-02-16T09:23:44.919Z,101505.03
2023-02-16T09:26:11.912Z,101508.97
2023-02-16T09:28:39.950Z,101509.66
2023-02-16T09:31:15.402Z,101516.09
2023-02-16T09:33:43.239Z,101516.97
2023-02-16T09:36:11.847Z,101514.19
2023-02-16T09:38:39.632Z,101518.69
2023-02-16T09:41:21.440Z,101513.06
2023-02-16T09:43:55.826Z,101514.47
2023-02-16T09:46:24.405Z,101513.94
2023-02-16T09:48:52.859Z,101497.84
2023-02-16T09:51:33.933Z,101500.03
2023-02-16T09:54:10.868Z,101508.28
2023-02-16T09:56:47.213Z,101504.06
2023-02-16T09:59:24.752Z,101520.31
2023-02-16T10:02:01.765Z,101512.91
2023-02-16T10:04:39.169Z,101518.47
2023-02-16T10:07:39.443Z,101505.72
2023-02-16T10:10:07.670Z,101514.78
2023-02-16T10:12:41.370Z,101507.81
2023-02-16T10:15:08.678Z,101505.22
2023-02-16T10:17:59.380Z,101500.91
2023-02-16T10:20:33.150Z,101508.63
2023-02-16T10:23:12.090Z,101508.69
2023-02-16T10:25:57.606Z,101493.28
2023-02-16T10:28:43.055Z,101496.16
2023-02-16T10:31:28.592Z,101495.28
2023-02-16T10:34:23.340Z,101493.59
2023-02-16T10:37:02.556Z,101498.03
2023-02-16T10:39:38.360Z,101494.72
2023-02-16T10:42:18.017Z,101494.13
2023-02-16T10:44:49.176Z,101483.72
2023-02-16T10:47:28.515Z,101480.47
2023-02-16T10:49:55.432Z,101481.59
2023-02-16T10:52:22.315Z,101476.50
2023-02-16T10:54:49.444Z,101479.31
2023-02-16T10:57:36.406Z,101478.50
2023-02-16T11:00:07.030Z,101471.53
2023-02-16T11:02:39.276Z,101468.94
2023-02-16T11:05:27.708Z,101461.97
2023-02-16T11:08:01.492Z,101461.22
2023-02-16T11:10:41.450Z,101464.91
2023-02-16T11:13:19.915Z,101464.19
2023-02-16T11:15:51.898Z,101462.50
2023-02-16T11:18:36.488Z,101458.22
2023-02-16T11:21:03.655Z,101451.22
2023-02-16T11:23:34.505Z,101446.84
2023-02-16T11:26:10.401Z,101449.53
2023-02-16T11:28:38.229Z,101446.91
2023-02-16T11:31:18.794Z,101441.66
2023-02-16T11:34:06.660Z,101445.19
2023-02-16T11:36:42.450Z,101445.22
2023-02-16T11:39:37.181Z,101443.44
2023-02-16T11:42:07.777Z,101434.69
2023-02-16T11:44:37.344Z,101435.56
2023-02-16T11:47:22.421Z,101436.47
2023-02-16T11:49:51.861Z,101436.50
2023-02-16T11:52:24.561Z,101436.50
2023-02-16T11:54:53.752Z,101436.50
2023-02-16T11:57:29.709Z,101434.75
2023-02-16T11:59:57.632Z,101438.25
2023-02-16T12:02:35.995Z,101434.75
2023-02-16T12:05:14.507Z,101433.84
2023-02-16T12:08:06.481Z,101424.22
2023-02-16T12:10:42.140Z,101424.22
2023-02-16T12:13:29.182Z,101425.06
2023-02-16T12:16:00.772Z,101418.94
2023-02-16T12:18:38.916Z,101418.03
2023-02-16T12:21:22.462Z,101410.16
2023-02-16T12:24:06.927Z,101412.75
2023-02-16T12:26:38.499Z,101399.53
2023-02-16T12:29:21.120Z,101395.97
2023-02-16T12:32:08.995Z,101397.69
2023-02-16T12:34:50.962Z,101391.50
2023-02-16T12:37:29.644Z,101402.91
2023-02-16T12:40:20.685Z,101397.59
2023-02-16T12:43:08.139Z,101402.94
2023-02-16T12:45:41.013Z,101407.31
2023-02-16T12:48:16.823Z,101396.78
2023-02-16T12:50:44.995Z,101403.78
2023-02-16T12:53:14.628Z,101394.16
2023-02-16T12:55:49.044Z,101406.50
2023-02-16T12:58:33.876Z,101404.72
2023-02-16T13:01:23.850Z,101399.47
2023-02-16T13:03:56.379Z,101392.47
2023-02-16T13:06:33.948Z,101383.75
2023-02-16T13:09:19.223Z,101380.22
2023-02-16T13:12:06.865Z,101387.28
2023-02-16T13:14:36.517Z,101383.78
2023-02-16T13:17:10.362Z,101376.75
2023-02-16T13:19:37.026Z,101379.44
2023-02-16T13:22:28.039Z,101378.50
2023-02-16T13:25:04.198Z,101376.72
2023-02-16T13:27:47.999Z,101374.09
2023-02-16T13:30:40.342Z,101366.19
2023-02-16T13:33:16.948Z,101368.84
2023-02-16T13:36:19.154Z,101354.72
2023-02-16T13:39:09.806Z,101367.91
2023-02-16T13:42:18.455Z,101369.66
2023-02-16T13:44:54.511Z,101376.66
2023-02-16T13:47:28.571Z,101373.13
2023-02-16T13:50:03.708Z,101365.25
2023-02-16T13:52:35.325Z,101363.47
2023-02-16T13:55:05.146Z,101366.09
2023-02-16T13:58:08.095Z,101362.53
2023-02-16T14:00:43.860Z,101358.97
2023-02-16T14:03:16.470Z,101361.63
2023-02-16T14:05:45.033Z,101351.13
2023-02-16T14:08:11.545Z,101365.19
2023-02-16T14:10:53.488Z,101353.75
2023-02-16T14:13:38.480Z,101359.94
2023-02-16T14:16:17.443Z,101345.88
2023-02-16T14:18:55.098Z,101352.06
2023-02-16T14:21:27.873Z,101341.53
2023-02-16T14:23:56.437Z,101347.69
2023-02-16T14:26:23.743Z,101343.25
2023-02-16T14:29:13.117Z,101345.97
2023-02-16T14:31:44.382Z,101346.84
2023-02-16T14:34:35.716Z,101346.84
2023-02-16T14:37:16.244Z,101345.16
2023-02-16T14:40:06.575Z,101345.13
2023-02-16T14:42:33.008Z,101347.78
2023-02-16T14:45:19.680Z,101352.19
2023-02-16T14:47:56.924Z,101345.16
2023-02-16T14:51:01.319Z,101358.34
2023-02-16T14:53:46.399Z,101354.84
2023-02-16T14:56:39.449Z,101352.22
2023-02-16T14:59:35.446Z,101356.56
2023-02-16T15:02:31.947Z,101365.38
2023-02-16T15:04:58.820Z,101365.34
2023-02-16T15:07:28.019Z,101366.22
2023-02-16T15:09:58.887Z,101363.59
2023-02-16T15:12:29.346Z,101365.34
2023-02-16T15:15:02.075Z,101363.59
2023-02-16T15:17:38.254Z,101361.84
2023-02-16T15:20:27.527Z,101368.88
2023-02-16T15:22:59.524Z,101367.09
2023-02-16T15:25:38.505Z,101367.13
2023-02-16T15:28:17.548Z,101371.47
2023-02-16T15:30:49.979Z,101365.31
2023-02-16T15:33:25.520Z,101363.56
2023-02-16T15:35:55.591Z,101360.06
2023-02-16T15:38:33.819Z,101364.47
2023-02-16T15:41:06.742Z,101352.19
2023-02-16T15:43:47.633Z,101356.56
2023-02-16T15:46:33.832Z,101348.66
2023-02-16T15:49:26.348Z,101348.66
2023-02-16T15:51:55.731Z,101339.84
2023-02-16T15:54:25.151Z,101341.59
2023-02-16T15:56:54.244Z,101339.84
2023-02-16T15:59:35.812Z,101336.31
2023-02-16T16:02:15.850Z,101334.53
2023-02-16T16:04:46.575Z,101338.00
2023-02-16T16:07:15.190Z,101330.97
2023-02-16T16:09:42.528Z,101333.56
2023-02-16T16:12:13.349Z,101324.75
2023-02-16T16:14:44.205Z,101328.28
2023-02-16T16:17:15.576Z,101331.78
2023-02-16T16:19:42.509Z,101330.84
2023-02-16T16:22:29.721Z,101322.94
2023-02-16T16:24:56.533Z,101322.03
2023-02-16T16:27:36.658Z,101314.13
2023-02-16T16:30:15.347Z,101322.00
2023-02-16T16:32:42.100Z,101316.72
2023-02-16T16:35:39.182Z,101314.94
2023-02-16T16:38:17.671Z,101303.53
2023-02-16T16:40:50.711Z,101309.63
2023-02-16T16:44:18.652Z,101304.38
2023-02-16T16:46:44.361Z,101312.13
2023-02-16T16:49:46.246Z,101306.88
2023-02-16T16:53:31.157Z,101298.06
2023-02-16T16:55:58.846Z,101298.91
2023-02-16T16:58:26.252Z,101295.38
2023-02-16T17:00:52.862Z,101295.34
2023-02-16T17:03:20.388Z,101304.97
2023-02-16T17:05:47.413Z,101303.19
2023-02-16T17:08:14.061Z,101305.81
2023-02-16T17:10:41.530Z,101314.50
2023-02-16T17:13:08.256Z,101307.50
2023-02-16T17:15:45.686Z,101306.63
2023-02-16T17:18:17.768Z,101303.13
2023-02-16T17:20:45.473Z,101308.38
2023-02-16T17:23:13.697Z,101305.75
2023-02-16T17:25:40.735Z,101307.44
2023-02-16T17:28:07.850Z,101313.56
2023-02-16T17:30:35.333Z,101314.44
2023-02-16T17:33:02.874Z,101318.81
2023-02-16T17:35:30.828Z,101317.94
2023-02-16T17:37:57.538Z,101320.59
2023-02-16T17:40:24.795Z,101322.38
2023-02-16T17:42:51.914Z,101330.22
2023-02-16T17:45:24.038Z,101333.72
2023-02-16T17:47:52.986Z,101321.56
2023-02-16T17:50:20.857Z,101325.00
2023-02-16T17:52:47.595Z,101325.00
2023-02-16T17:55:14.392Z,101319.75
2023-02-16T17:57:41.128Z,101312.81
2023-02-16T18:00:09.299Z,101313.72
2023-02-16T18:02:35.887Z,101313.69
2023-02-16T18:05:02.675Z,101314.63
2023-02-16T18:07:29.435Z,101303.25
2023-02-16T18:09:56.054Z,101305.00
2023-02-16T18:12:22.644Z,101308.50
2023-02-16T18:14:49.253Z,101304.97
2023-02-16T18:17:16.467Z,101304.13
2023-02-16T18:19:43.201Z,101305.91
2023-02-16T18:22:12.953Z,101306.75
2023-02-16T18:24:39.887Z,101313.75
2023-02-16T18:27:12.619Z,101315.50
2023-02-16T18:29:49.772Z,101317.22
2023-02-16T18:32:29.551Z,101314.59
2023-02-16T18:34:59.077Z,101311.06
2023-02-16T18:37:28.533Z,101315.44
2023-02-16T18:40:02.896Z,101308.44
2023-02-16T18:42:32.011Z,101298.81
2023-02-16T18:45:07.355Z,101291.78
2023-02-16T18:47:54.286Z,101302.28
2023-02-16T18:50:24.229Z,101306.66
2023-02-16T18:52:54.044Z,101302.28
2023-02-16T18:55:37.571Z,101302.25
2023-02-16T18:58:08.108Z,101303.19
2023-02-16T19:00:41.535Z,101303.19
2023-02-16T19:03:13.195Z,101303.25
2023-02-16T19:05:39.939Z,101301.50
2023-02-16T19:08:06.840Z,101290.97
2023-02-16T19:10:33.887Z,101294.50
2023-02-16T19:13:02.107Z,101291.94
2023-02-16T19:15:28.980Z,101291.03
2023-02-16T19:17:55.700Z,101290.22
2023-02-16T19:20:22.329Z,101284.13
2023-02-16T19:22:49.328Z,101278.00
2023-02-16T19:25:16.434Z,101279.75
2023-02-16T19:27:44.189Z,101271.94
2023-02-16T19:30:11.382Z,101274.59
2023-02-16T19:32:40.923Z,101289.44
2023-02-16T19:35:09.410Z,101284.25
2023-02-16T19:37:36.284Z,101286.91
2023-02-16T19:40:03.896Z,101286.00
2023-02-16T19:42:30.546Z,101285.16
2023-02-16T19:44:57.199Z,101295.72
2023-02-16T19:47:23.885Z,101292.28
2023-02-16T19:49:50.552Z,101290.44
2023-02-16T19:52:17.450Z,101283.47
2023-02-16T19:54:44.173Z,101282.63
2023-02-16T19:57:10.822Z,101280.88
2023-02-16T19:59:37.495Z,101283.50
2023-02-16T20:02:04.203Z,101276.56
2023-02-16T20:04:30.845Z,101275.69
2023-02-16T20:06:57.507Z,101278.31
2023-02-16T20:09:24.648Z,101276.56
2023-02-16T20:11:51.784Z,101271.34
2023-02-16T20:14:18.746Z,101282.72
2023-02-16T20:16:45.372Z,101272.25
2023-02-16T20:19:12.012Z,101280.97
2023-02-16T20:21:40.862Z,101278.38
2023-02-16T20:24:07.689Z,101273.09
2023-02-16T20:26:37.600Z,101279.25
2023-02-16T20:29:06.716Z,101274.88
2023-02-16T20:31:48.720Z,101275.72
2023-02-16T20:34:15.556Z,101271.31
2023-02-16T20:36:42.773Z,101262.56
2023-02-16T20:39:09.728Z,101258.19
2023-02-16T20:41:36.339Z,101257.28
2023-02-16T20:44:03.786Z,101259.03
2023-02-16T20:46:35.301Z,101262.47
2023-02-16T20:49:02.020Z,101257.19
2023-02-16T20:51:28.743Z,101251.97
2023-02-16T20:53:55.419Z,101248.44
2023-02-16T20:56:24.869Z,101257.16
2023-02-16T20:58:53.776Z,101253.66
2023-02-16T21:01:30.490Z,101244.06
2023-02-16T21:03:58.901Z,101243.16
2023-02-16T21:06:26.369Z,101239.59
2023-02-16T21:08:53.186Z,101241.34
2023-02-16T21:11:19.796Z,101238.78
2023-02-16T21:13:47.008Z,101241.41
2023-02-16T21:16:16.865Z,101236.19
2023-02-16T21:18:43.868Z,101239.66
2023-02-16T21:21:15.477Z,101236.16
2023-02-16T21:23:48.041Z,101231.78
2023-02-16T21:26:15.979Z,101229.97
2023-02-16T21:28:42.682Z,101221.28
2023-02-16T21:31:15.482Z,101214.22
2023-02-16T21:33:42.937Z,101215.94
2023-02-16T21:36:12.718Z,101206.31
2023-02-16T21:38:40.444Z,101204.56
2023-02-16T21:41:29.610Z,101208.06
2023-02-16T21:43:58.193Z,101198.41
2023-02-16T21:46:25.820Z,101206.28
2023-02-16T21:48:53.344Z,101191.41
2023-02-16T21:51:22.287Z,101197.53
2023-02-16T21:53:49.076Z,101194.06
2023-02-16T21:56:30.566Z,101193.19
2023-02-16T21:58:57.965Z,101201.91
2023-02-16T22:01:28.049Z,101198.34
2023-02-16T22:03:59.364Z,101194.06
2023-02-16T22:06:34.396Z,101192.34
2023-02-16T22:09:04.941Z,101193.22
2023-02-16T22:11:33.334Z,101192.31
2023-02-16T22:14:04.190Z,101194.03
2023-02-16T22:16:32.610Z,101184.41
2023-02-16T22:19:01.847Z,101183.56
2023-02-16T22:21:29.298Z,101178.34
2023-02-16T22:23:59.556Z,101171.34
2023-02-16T22:26:29.053Z,101172.25
2023-02-16T22:29:01.515Z,101180.13
2023-02-16T22:31:28.244Z,101175.69
2023-02-16T22:34:00.070Z,101176.56
2023-02-16T22:36:26.795Z,101176.53
2023-02-16T22:38:54.028Z,101177.44
2023-02-16T22:41:23.847Z,101186.22
2023-02-16T22:44:01.180Z,101184.44
2023-02-16T22:46:31.962Z,101182.75
2023-02-16T22:49:01.750Z,101179.22
2023-02-16T22:51:29.183Z,101172.19
2023-02-16T22:53:57.991Z,101171.28
2023-02-16T22:56:26.801Z,101170.44
2023-02-16T22:58:56.482Z,101167.81
2023-02-16T23:01:26.021Z,101163.41
2023-02-16T23:03:57.452Z,101173.03
2023-02-16T23:06:30.144Z,101162.56
2023-02-16T23:08:59.270Z,101165.13
2023-02-16T23:11:26.857Z,101164.28
2023-02-16T23:13:53.700Z,101163.38
2023-02-16T23:16:23.176Z,101159.88
2023-02-16T23:18:49.917Z,101153.75
2023-02-16T23:21:31.010Z,101145.91
2023-02-16T23:23:58.571Z,101152.88
2023-02-16T23:26:27.494Z,101159.81
2023-02-16T23:28:55.711Z,101163.31
2023-02-16T23:31:22.996Z,101158.91
2023-02-16T23:33:49.880Z,101159.00
2023-02-16T23:36:16.597Z,101155.44
2023-02-16T23:38:45.681Z,101151.94
2023-02-16T23:41:13.970Z,101157.19
2023-02-16T23:43:45.885Z,101149.31
2023-02-16T23:46:12.682Z,101151.06
2023-02-16T23:48:39.438Z,101144.03
2023-02-16T23:51:06.347Z,101146.66
2023-02-16T23:53:36.322Z,101144.06
2023-02-16T23:56:15.348Z,101129.22
2023-02-16T23:58:42.921Z,101137.97
